createdAt,value
2018-09-19T00:02:20.687Z,100191.05
2018-09-19T00:04:48.346Z,100190.53
2018-09-19T00:07:16.210Z,100189.89
2018-09-19T00:09:43.923Z,100187.18
2018-09-19T00:12:11.633Z,100185.15
2018-09-19T00:14:39.293Z,100184.63
2018-09-19T00:17:07.087Z,100191.34
2018-09-19T00:19:34.827Z,100193.81
2018-09-19T00:22:03.362Z,100193.05
2018-09-19T00:24:31.420Z,100199.09
2018-09-19T00:26:59.141Z,100201.41
2018-09-19T00:29:26.946Z,100202.38
2018-09-19T00:31:54.708Z,100200.83
2018-09-19T00:34:22.558Z,100200.16
2018-09-19T00:36:50.299Z,100194.61
2018-09-19T00:39:18.059Z,100197.52
2018-09-19T00:41:46.020Z,100205.06
2018-09-19T00:44:13.720Z,100204.52
2018-09-19T00:46:41.485Z,100197.19
2018-09-19T00:49:09.180Z,100209.05
2018-09-19T00:51:36.891Z,100204.07
2018-09-19T00:54:04.762Z,100214.75
2018-09-19T00:56:32.436Z,100209.78
2018-09-19T00:59:00.205Z,100214.56
2018-09-19T01:01:27.884Z,100214.19
2018-09-19T01:03:55.623Z,100212.81
2018-09-19T01:06:23.341Z,100208.44
2018-09-19T01:08:51.019Z,100210.52
2018-09-19T01:11:18.724Z,100210.70
2018-09-19T01:13:46.514Z,100215.80
2018-09-19T01:16:14.264Z,100208.22
2018-09-19T01:18:41.971Z,100211.90
2018-09-19T01:21:09.751Z,100207.95
2018-09-19T01:23:37.476Z,100208.16
2018-09-19T01:26:05.789Z,100213.60
2018-09-19T01:28:35.383Z,100215.33
2018-09-19T01:31:03.221Z,100218.89
2018-09-19T01:33:30.951Z,100216.64
2018-09-19T01:36:02.647Z,100213.80
2018-09-19T01:38:30.370Z,100212.22
2018-09-19T01:40:58.072Z,100213.66
2018-09-19T01:43:25.754Z,100217.09
2018-09-19T01:45:53.535Z,100217.20
2018-09-19T01:48:21.620Z,100228.30
2018-09-19T01:50:49.483Z,100229.56
2018-09-19T01:53:17.172Z,100233.83
2018-09-19T01:55:44.936Z,100241.06
2018-09-19T01:58:12.635Z,100234.05
2018-09-19T02:00:40.411Z,100229.05
2018-09-19T02:03:08.202Z,100230.98
2018-09-19T02:05:36.165Z,100233.34
2018-09-19T02:08:03.999Z,100236.29
2018-09-19T02:10:31.839Z,100247.30
2018-09-19T02:12:59.666Z,100244.03
2018-09-19T02:15:27.531Z,100243.22
2018-09-19T02:17:55.324Z,100242.62
2018-09-19T02:20:23.080Z,100248.34
2018-09-19T02:22:50.815Z,100243.34
2018-09-19T02:25:18.694Z,100254.53
2018-09-19T02:27:46.664Z,100248.52
2018-09-19T02:30:14.513Z,100250.86
2018-09-19T02:32:42.301Z,100252.70
2018-09-19T02:35:10.132Z,100249.55
2018-09-19T02:37:37.879Z,100248.13
2018-09-19T02:40:05.989Z,100248.34
2018-09-19T02:42:33.891Z,100261.97
2018-09-19T02:45:01.676Z,100263.08
2018-09-19T02:47:29.435Z,100265.42
2018-09-19T02:49:57.102Z,100271.02
2018-09-19T02:52:24.787Z,100273.36
2018-09-19T02:54:52.548Z,100271.65
2018-09-19T02:57:20.340Z,100277.13
2018-09-19T02:59:48.866Z,100273.88
2018-09-19T03:02:16.723Z,100270.11
2018-09-19T03:07:45.825Z,100264.73
2018-09-19T03:10:13.543Z,100267.86
2018-09-19T03:12:41.347Z,100268.99
2018-09-19T03:15:09.128Z,100268.69
2018-09-19T03:17:36.937Z,100268.69
2018-09-19T03:20:04.579Z,100264.48
2018-09-19T03:22:32.481Z,100270.16
2018-09-19T03:25:00.468Z,100268.14
2018-09-19T03:27:28.182Z,100269.38
2018-09-19T03:29:55.931Z,100270.62
2018-09-19T03:32:23.679Z,100270.92
2018-09-19T03:34:51.435Z,100268.28
2018-09-19T03:37:19.152Z,100270.92
2018-09-19T03:39:46.850Z,100272.84
2018-09-19T03:42:14.648Z,100268.70
2018-09-19T03:44:42.402Z,100264.39
2018-09-19T03:47:10.087Z,100264.01
2018-09-19T03:49:37.910Z,100271.73
2018-09-19T03:52:05.610Z,100269.69
2018-09-19T03:54:33.386Z,100262.78
2018-09-19T03:57:01.399Z,100269.00
2018-09-19T03:59:29.245Z,100266.23
2018-09-19T04:01:57.068Z,100267.84
2018-09-19T04:04:24.743Z,100262.55
2018-09-19T04:06:52.548Z,100264.35
2018-09-19T04:09:20.310Z,100258.06
2018-09-19T04:11:48.315Z,100268.52
2018-09-19T04:14:16.113Z,100264.05
2018-09-19T04:16:47.382Z,100262.11
2018-09-19T04:19:15.135Z,100263.52
2018-09-19T04:21:48.974Z,100267.09
2018-09-19T04:24:16.759Z,100265.03
2018-09-19T04:26:44.619Z,100265.16
2018-09-19T04:29:12.535Z,100267.59
2018-09-19T04:31:40.466Z,100264.54
2018-09-19T04:34:08.153Z,100271.85
2018-09-19T04:36:35.863Z,100268.28
2018-09-19T04:39:06.298Z,100272.77
2018-09-19T04:41:34.109Z,100269.94
2018-09-19T04:44:01.855Z,100273.48
2018-09-19T04:46:29.666Z,100271.04
2018-09-19T04:48:57.420Z,100280.91
2018-09-19T04:51:25.305Z,100279.05
2018-09-19T04:53:52.995Z,100275.90
2018-09-19T04:56:20.700Z,100284.34
2018-09-19T04:58:48.410Z,100296.86
2018-09-19T05:01:16.126Z,100284.45
2018-09-19T05:03:43.862Z,100290.02
2018-09-19T05:06:11.598Z,100279.34
2018-09-19T05:08:39.330Z,100281.78
2018-09-19T05:11:07.035Z,100284.83
2018-09-19T05:13:34.723Z,100280.05
2018-09-19T05:16:02.649Z,100287.96
2018-09-19T05:18:30.372Z,100295.19
2018-09-19T05:20:58.070Z,100312.03
2018-09-19T05:23:27.496Z,100309.01
2018-09-19T05:25:55.510Z,100303.11
2018-09-19T05:28:23.188Z,100307.08
2018-09-19T05:30:51.224Z,100315.08
2018-09-19T05:33:18.903Z,100316.61
2018-09-19T05:35:46.621Z,100319.95
2018-09-19T05:38:14.479Z,100319.86
2018-09-19T05:40:42.245Z,100314.27
2018-09-19T05:43:09.964Z,100320.77
2018-09-19T05:45:41.424Z,100324.44
2018-09-19T05:48:09.134Z,100323.11
2018-09-19T05:50:37.140Z,100328.02
2018-09-19T05:53:04.956Z,100330.46
2018-09-19T05:55:32.620Z,100335.54
2018-09-19T05:58:00.351Z,100335.57
2018-09-19T06:00:28.069Z,100340.48
2018-09-19T06:02:55.829Z,100340.88
2018-09-19T06:05:23.642Z,100343.13
2018-09-19T06:07:51.575Z,100351.18
2018-09-19T06:10:19.254Z,100360.77
2018-09-19T06:12:46.986Z,100360.27
2018-09-19T06:15:14.679Z,100358.12
2018-09-19T06:17:42.413Z,100351.83
2018-09-19T06:20:10.128Z,100354.11
2018-09-19T06:22:37.926Z,100359.10
2018-09-19T06:25:06.005Z,100364.48
2018-09-19T06:27:33.643Z,100355.48
2018-09-19T06:30:01.418Z,100351.33
2018-09-19T06:32:29.159Z,100352.73
2018-09-19T06:34:56.946Z,100362.64
2018-09-19T06:37:24.674Z,100367.31
2018-09-19T06:39:52.538Z,100365.59
2018-09-19T06:42:20.210Z,100362.64
2018-09-19T06:44:47.936Z,100362.44
2018-09-19T06:47:15.622Z,100365.19
2018-09-19T06:49:43.334Z,100368.44
2018-09-19T06:52:11.115Z,100377.54
2018-09-19T06:54:38.798Z,100377.72
2018-09-19T06:57:06.542Z,100382.52
2018-09-19T06:59:34.350Z,100388.54
2018-09-19T07:02:02.119Z,100393.63
2018-09-19T07:04:33.715Z,100390.89
2018-09-19T07:07:01.514Z,100392.63
2018-09-19T07:09:29.169Z,100393.42
2018-09-19T07:11:56.856Z,100396.48
2018-09-19T07:14:24.595Z,100399.72
2018-09-19T07:16:52.274Z,100396.75
2018-09-19T07:19:20.311Z,100394.45
2018-09-19T07:21:48.019Z,100392.78
2018-09-19T07:24:15.702Z,100397.77
2018-09-19T07:26:43.511Z,100389.53
2018-09-19T07:29:11.228Z,100390.05
2018-09-19T07:31:39.033Z,100382.65
2018-09-19T07:34:07.206Z,100386.48
2018-09-19T07:36:35.168Z,100390.39
2018-09-19T07:39:03.851Z,100390.59
2018-09-19T07:41:31.528Z,100394.79
2018-09-19T07:43:59.489Z,100396.93
2018-09-19T07:46:27.271Z,100396.28
2018-09-19T07:48:54.978Z,100396.69
2018-09-19T07:51:22.711Z,100399.57
2018-09-19T07:53:51.166Z,100401.50
2018-09-19T07:56:19.046Z,100394.08
2018-09-19T07:58:46.811Z,100400.55
2018-09-19T08:01:14.559Z,100397.33
2018-09-19T08:03:42.350Z,100397.58
2018-09-19T08:06:10.136Z,100394.52
2018-09-19T08:08:37.883Z,100389.03
2018-09-19T08:11:05.622Z,100387.86
2018-09-19T08:13:33.426Z,100391.44
2018-09-19T08:16:01.171Z,100399.61
2018-09-19T08:18:28.892Z,100396.45
2018-09-19T08:20:56.660Z,100400.47
2018-09-19T08:23:24.424Z,100400.80
2018-09-19T08:25:52.520Z,100402.94
2018-09-19T08:28:20.299Z,100402.83
2018-09-19T08:30:48.177Z,100399.02
2018-09-19T08:33:15.874Z,100395.73
2018-09-19T08:35:43.604Z,100396.20
2018-09-19T08:38:15.233Z,100399.13
2018-09-19T08:40:43.000Z,100395.02
2018-09-19T08:43:10.691Z,100402.05
2018-09-19T08:45:38.416Z,100405.83
2018-09-19T08:48:06.187Z,100408.28
2018-09-19T08:50:33.998Z,100406.83
2018-09-19T08:53:02.384Z,100408.33
2018-09-19T08:55:30.479Z,100406.30
2018-09-19T08:57:58.559Z,100405.42
2018-09-19T09:00:26.343Z,100400.75
2018-09-19T09:02:54.032Z,100397.19
2018-09-19T09:05:22.079Z,100399.61
2018-09-19T09:07:49.760Z,100394.23
2018-09-19T09:10:17.513Z,100393.50
2018-09-19T09:12:45.263Z,100390.37
2018-09-19T09:15:12.946Z,100393.59
2018-09-19T09:17:40.686Z,100391.72
2018-09-19T09:20:08.456Z,100388.22
2018-09-19T09:22:36.170Z,100382.47
2018-09-19T09:25:03.949Z,100385.78
2018-09-19T09:27:32.109Z,100380.02
2018-09-19T09:29:59.615Z,100380.28
2018-09-19T09:32:27.315Z,100381.66
2018-09-19T09:34:55.060Z,100378.42
2018-09-19T09:37:22.827Z,100381.15
2018-09-19T09:39:50.524Z,100376.53
2018-09-19T09:42:18.373Z,100368.45
2018-09-19T09:44:46.199Z,100364.86
2018-09-19T09:47:13.884Z,100366.24
2018-09-19T09:49:41.729Z,100370.88
2018-09-19T09:52:09.621Z,100374.04
2018-09-19T09:54:37.299Z,100374.05
2018-09-19T09:57:05.819Z,100373.92
2018-09-19T09:59:33.879Z,100371.35
2018-09-19T10:02:01.762Z,100367.45
2018-09-19T10:04:29.474Z,100360.68
2018-09-19T10:06:57.226Z,100356.95
2018-09-19T10:09:25.103Z,100351.48
2018-09-19T10:11:53.526Z,100344.79
2018-09-19T10:14:21.513Z,100348.13
2018-09-19T10:16:49.263Z,100341.73
2018-09-19T10:19:17.032Z,100334.09
2018-09-19T10:21:44.806Z,100338.56
2018-09-19T10:24:12.518Z,100330.58
2018-09-19T10:26:40.214Z,100328.57
2018-09-19T10:29:08.031Z,100333.77
2018-09-19T10:31:35.851Z,100334.36
2018-09-19T10:34:03.628Z,100334.28
2018-09-19T10:36:35.275Z,100333.09
2018-09-19T10:39:04.060Z,100332.63
2018-09-19T10:41:31.845Z,100327.02
2018-09-19T10:43:59.577Z,100324.75
2018-09-19T10:46:27.257Z,100325.60
2018-09-19T10:48:55.008Z,100323.91
2018-09-19T10:51:23.058Z,100321.76
2018-09-19T10:53:50.806Z,100329.40
2018-09-19T10:56:18.584Z,100323.05
2018-09-19T10:58:46.403Z,100323.65
2018-09-19T11:01:14.102Z,100320.95
2018-09-19T11:03:41.990Z,100318.11
2018-09-19T11:06:09.950Z,100317.41
2018-09-19T11:08:37.705Z,100314.29
2018-09-19T11:11:05.869Z,100311.55
2018-09-19T11:13:33.649Z,100316.33
2018-09-19T11:16:01.326Z,100310.52
2018-09-19T11:18:29.039Z,100307.63
2018-09-19T11:20:56.875Z,100302.47
2018-09-19T11:23:24.610Z,100311.98
2018-09-19T11:25:52.347Z,100302.09
2018-09-19T11:28:20.132Z,100306.98
2018-09-19T11:30:47.871Z,100303.05
2018-09-19T11:33:15.659Z,100302.43
2018-09-19T11:35:43.432Z,100292.34
2018-09-19T11:38:11.339Z,100297.63
2018-09-19T11:40:39.341Z,100296.59
2018-09-19T11:43:07.174Z,100299.49
2018-09-19T11:45:34.942Z,100298.74
2018-09-19T11:48:02.824Z,100294.92
2018-09-19T11:50:30.625Z,100297.84
2018-09-19T11:52:58.318Z,100299.73
2018-09-19T11:55:26.359Z,100290.59
2018-09-19T11:57:54.671Z,100290.14
2018-09-19T12:00:22.498Z,100287.19
2018-09-19T12:02:50.473Z,100288.47
2018-09-19T12:05:18.207Z,100285.41
2018-09-19T12:07:45.894Z,100279.03
2018-09-19T12:10:14.061Z,100278.16
2018-09-19T12:12:45.416Z,100266.80
2018-09-19T12:15:13.155Z,100266.85
2018-09-19T12:17:40.927Z,100261.09
2018-09-19T12:20:08.662Z,100262.81
2018-09-19T12:22:36.440Z,100259.98
2018-09-19T12:25:04.183Z,100262.23
2018-09-19T12:27:31.972Z,100256.32
2018-09-19T12:29:59.703Z,100249.16
2018-09-19T12:32:27.424Z,100247.37
2018-09-19T12:34:55.253Z,100249.75
2018-09-19T12:37:22.932Z,100244.41
2018-09-19T12:39:50.659Z,100253.13
2018-09-19T12:42:18.397Z,100244.35
2018-09-19T12:44:46.278Z,100243.97
2018-09-19T12:47:14.128Z,100237.45
2018-09-19T12:49:41.858Z,100233.21
2018-09-19T12:52:09.710Z,100235.63
2018-09-19T12:54:37.547Z,100240.00
2018-09-19T12:57:05.391Z,100230.25
2018-09-19T12:59:33.122Z,100242.62
2018-09-19T13:02:00.823Z,100229.80
2018-09-19T13:04:28.619Z,100230.44
2018-09-19T13:06:56.381Z,100227.23
2018-09-19T13:09:24.501Z,100222.98
2018-09-19T13:11:52.334Z,100230.16
2018-09-19T13:14:20.091Z,100223.50
2018-09-19T13:16:47.866Z,100222.98
2018-09-19T13:19:15.585Z,100227.98
2018-09-19T13:21:43.310Z,100222.88
2018-09-19T13:24:11.048Z,100225.07
2018-09-19T13:26:38.785Z,100220.78
2018-09-19T13:29:10.296Z,100221.84
2018-09-19T13:31:38.020Z,100221.52
2018-09-19T13:34:05.890Z,100211.98
2018-09-19T13:36:33.612Z,100212.08
2018-09-19T13:39:01.698Z,100211.89
2018-09-19T13:41:29.447Z,100208.41
2018-09-19T13:43:57.326Z,100208.65
2018-09-19T13:46:25.503Z,100208.24
2018-09-19T13:49:00.179Z,100202.11
2018-09-19T13:51:27.909Z,100203.03
2018-09-19T13:53:55.968Z,100199.60
2018-09-19T13:56:23.836Z,100197.98
2018-09-19T13:58:51.822Z,100191.95
2018-09-19T14:01:19.719Z,100196.74
2018-09-19T14:03:47.588Z,100200.34
2018-09-19T14:06:15.442Z,100199.30
2018-09-19T14:08:43.295Z,100191.36
2018-09-19T14:11:11.032Z,100197.02
2018-09-19T14:13:38.721Z,100195.90
2018-09-19T14:16:07.342Z,100193.19
2018-09-19T14:18:35.032Z,100199.17
2018-09-19T14:21:02.795Z,100193.94
2018-09-19T14:23:30.627Z,100200.74
2018-09-19T14:25:58.474Z,100198.52
2018-09-19T14:28:26.204Z,100201.62
2018-09-19T14:30:57.969Z,100196.20
2018-09-19T14:33:25.772Z,100194.42
2018-09-19T14:35:54.043Z,100193.77
2018-09-19T14:38:21.771Z,100188.41
2018-09-19T14:40:49.476Z,100184.06
2018-09-19T14:43:17.376Z,100189.86
2018-09-19T14:45:45.254Z,100186.41
2018-09-19T14:48:12.980Z,100184.73
2018-09-19T14:50:40.775Z,100188.91
2018-09-19T14:53:08.919Z,100184.41
2018-09-19T14:55:36.738Z,100182.11
2018-09-19T14:58:04.618Z,100187.42
2018-09-19T15:00:32.383Z,100182.70
2018-09-19T15:03:00.308Z,100182.85
2018-09-19T15:05:28.328Z,100186.94
2018-09-19T15:07:56.490Z,100180.14
2018-09-19T15:10:24.226Z,100180.54
2018-09-19T15:12:51.947Z,100178.24
2018-09-19T15:15:19.711Z,100174.41
2018-09-19T15:17:47.468Z,100176.81
2018-09-19T15:20:15.167Z,100177.54
2018-09-19T15:22:43.009Z,100176.88
2018-09-19T15:25:10.765Z,100170.97
2018-09-19T15:27:38.472Z,100167.17
2018-09-19T15:30:06.230Z,100171.09
2018-09-19T15:32:33.986Z,100170.75
2018-09-19T15:35:01.825Z,100170.71
2018-09-19T15:37:29.583Z,100173.75
2018-09-19T15:39:57.515Z,100173.53
2018-09-19T15:42:25.352Z,100166.03
2018-09-19T15:44:53.259Z,100162.47
2018-09-19T15:47:21.074Z,100168.75
2018-09-19T15:49:52.415Z,100164.55
2018-09-19T15:52:20.150Z,100167.25
2018-09-19T15:54:47.987Z,100169.09
2018-09-19T15:57:15.743Z,100170.53
2018-09-19T15:59:43.497Z,100167.44
2018-09-19T16:02:11.217Z,100167.09
2018-09-19T16:04:39.023Z,100165.38
2018-09-19T16:07:06.872Z,100168.54
2018-09-19T16:09:34.783Z,100167.69
2018-09-19T16:12:02.664Z,100171.23
2018-09-19T16:14:30.455Z,100167.76
2018-09-19T16:16:58.154Z,100161.06
2018-09-19T16:19:25.868Z,100167.03
2018-09-19T16:21:53.596Z,100161.70
2018-09-19T16:24:21.315Z,100164.74
2018-09-19T16:26:49.536Z,100166.76
2018-09-19T16:29:17.327Z,100168.45
2018-09-19T16:31:45.168Z,100170.41
2018-09-19T16:34:13.040Z,100173.41
2018-09-19T16:36:40.965Z,100177.25
2018-09-19T16:39:10.638Z,100173.00
2018-09-19T16:41:38.516Z,100178.45
2018-09-19T16:44:06.889Z,100182.00
2018-09-19T16:46:35.387Z,100179.06
2018-09-19T16:49:03.459Z,100173.50
2018-09-19T16:51:31.623Z,100172.02
2018-09-19T16:54:00.287Z,100181.03
2018-09-19T16:56:28.002Z,100184.94
2018-09-19T16:58:55.847Z,100185.81
2018-09-19T17:01:23.592Z,100175.97
2018-09-19T17:03:51.316Z,100180.14
2018-09-19T17:06:19.312Z,100179.98
2018-09-19T17:08:47.071Z,100181.95
2018-09-19T17:11:15.078Z,100175.59
2018-09-19T17:13:42.783Z,100171.63
2018-09-19T17:16:13.973Z,100175.95
2018-09-19T17:18:41.950Z,100176.56
2018-09-19T17:21:09.699Z,100177.14
2018-09-19T17:23:37.529Z,100176.64
2018-09-19T17:26:05.727Z,100182.80
2018-09-19T17:28:33.588Z,100176.08
2018-09-19T17:31:01.367Z,100180.38
2018-09-19T17:33:29.200Z,100186.28
2018-09-19T17:35:57.883Z,100184.96
2018-09-19T17:38:25.775Z,100188.42
2018-09-19T17:40:53.577Z,100188.42
2018-09-19T17:43:21.335Z,100193.52
2018-09-19T17:45:50.011Z,100193.50
2018-09-19T17:48:18.080Z,100197.50
2018-09-19T17:50:45.913Z,100197.46
2018-09-19T17:53:13.726Z,100191.81
2018-09-19T17:55:41.502Z,100197.94
2018-09-19T17:58:09.449Z,100200.87
2018-09-19T18:00:37.510Z,100204.05
2018-09-19T18:03:05.387Z,100204.80
2018-09-19T18:05:33.176Z,100205.00
2018-09-19T18:08:01.228Z,100210.56
2018-09-19T18:10:29.370Z,100210.53
2018-09-19T18:12:57.194Z,100208.64
2018-09-19T18:15:25.143Z,100214.27
2018-09-19T18:17:53.385Z,100216.91
2018-09-19T18:20:21.331Z,100216.59
2018-09-19T18:22:49.160Z,100221.91
2018-09-19T18:25:17.490Z,100220.03
2018-09-19T18:27:45.251Z,100219.19
2018-09-19T18:30:13.215Z,100226.06
2018-09-19T18:32:41.104Z,100224.46
2018-09-19T18:35:08.903Z,100219.31
2018-09-19T18:37:36.669Z,100227.56
2018-09-19T18:40:04.526Z,100228.31
2018-09-19T18:42:32.222Z,100227.47
2018-09-19T18:45:00.727Z,100231.42
2018-09-19T18:47:28.704Z,100234.63
2018-09-19T18:49:56.700Z,100238.85
2018-09-19T18:52:24.427Z,100237.50
2018-09-19T18:54:52.230Z,100230.48
2018-09-19T18:57:20.003Z,100235.77
2018-09-19T18:59:47.717Z,100236.56
2018-09-19T19:02:15.447Z,100236.51
2018-09-19T19:04:43.269Z,100246.78
2018-09-19T19:07:10.975Z,100248.36
2018-09-19T19:12:13.459Z,100253.03
2018-09-19T19:14:41.191Z,100253.82
2018-09-19T19:17:09.047Z,100254.83
2018-09-19T19:19:37.002Z,100258.78
2018-09-19T19:22:04.764Z,100257.95
2018-09-19T19:24:34.129Z,100261.08
2018-09-19T19:27:01.862Z,100259.47
2018-09-19T19:29:29.615Z,100260.79
2018-09-19T19:31:57.667Z,100260.73
2018-09-19T19:34:25.503Z,100259.10
2018-09-19T19:36:53.502Z,100261.42
2018-09-19T19:39:21.244Z,100254.66
2018-09-19T19:41:48.948Z,100258.06
2018-09-19T19:44:16.900Z,100257.80
2018-09-19T19:46:44.711Z,100252.37
2018-09-19T19:49:12.401Z,100253.09
2018-09-19T19:51:40.246Z,100258.97
2018-09-19T19:54:08.247Z,100263.16
2018-09-19T19:56:36.228Z,100259.59
2018-09-19T19:59:04.522Z,100259.31
2018-09-19T20:01:32.414Z,100263.48
2018-09-19T20:04:00.187Z,100265.08
2018-09-19T20:06:27.891Z,100262.62
2018-09-19T20:08:55.966Z,100262.15
2018-09-19T20:11:23.740Z,100268.18
2018-09-19T20:13:51.499Z,100266.66
2018-09-19T20:16:19.558Z,100274.83
2018-09-19T20:18:47.276Z,100272.66
2018-09-19T20:21:15.067Z,100279.02
2018-09-19T20:23:42.882Z,100285.39
2018-09-19T20:26:10.611Z,100283.86
2018-09-19T20:28:38.395Z,100277.37
2018-09-19T20:31:06.151Z,100285.73
2018-09-19T20:33:33.831Z,100280.64
2018-09-19T20:36:01.771Z,100285.14
2018-09-19T20:38:29.466Z,100281.53
2018-09-19T20:40:57.183Z,100281.99
2018-09-19T20:43:24.971Z,100280.59
2018-09-19T20:45:52.758Z,100281.05
2018-09-19T20:48:20.581Z,100282.64
2018-09-19T20:50:48.271Z,100278.34
2018-09-19T20:53:16.163Z,100284.08
2018-09-19T20:55:43.869Z,100291.91
2018-09-19T20:58:11.654Z,100292.02
2018-09-19T21:00:39.511Z,100289.88
2018-09-19T21:03:07.371Z,100290.36
2018-09-19T21:05:35.174Z,100292.33
2018-09-19T21:08:02.925Z,100290.19
2018-09-19T21:10:30.768Z,100292.58
2018-09-19T21:12:58.544Z,100295.90
2018-09-19T21:15:26.395Z,100292.31
2018-09-19T21:17:54.107Z,100295.44
2018-09-19T21:20:21.890Z,100300.94
2018-09-19T21:22:49.843Z,100298.40
2018-09-19T21:25:17.741Z,100301.30
2018-09-19T21:27:45.455Z,100298.81
2018-09-19T21:30:13.203Z,100304.14
2018-09-19T21:32:40.888Z,100305.10
2018-09-19T21:35:08.627Z,100314.36
2018-09-19T21:37:36.334Z,100315.08
2018-09-19T21:40:04.115Z,100313.44
2018-09-19T21:42:31.858Z,100313.15
2018-09-19T21:44:59.598Z,100317.14
2018-09-19T21:47:27.255Z,100312.17
2018-09-19T21:49:54.993Z,100317.91
2018-09-19T21:52:22.663Z,100314.31
2018-09-19T21:54:50.398Z,100322.03
2018-09-19T21:57:18.159Z,100312.45
2018-09-19T21:59:45.903Z,100313.62
2018-09-19T22:02:16.203Z,100308.88
2018-09-19T22:04:45.069Z,100311.14
2018-09-19T22:07:12.971Z,100309.00
2018-09-19T22:09:40.816Z,100306.78
2018-09-19T22:12:09.498Z,100314.33
2018-09-19T22:14:38.859Z,100317.32
2018-09-19T22:17:06.867Z,100316.39
2018-09-19T22:19:34.611Z,100317.30
2018-09-19T22:22:02.636Z,100316.45
2018-09-19T22:24:30.342Z,100317.54
2018-09-19T22:26:58.091Z,100312.40
2018-09-19T22:29:25.899Z,100325.56
2018-09-19T22:31:53.620Z,100318.90
2018-09-19T22:34:21.371Z,100323.13
2018-09-19T22:36:49.156Z,100316.28
2018-09-19T22:39:16.867Z,100321.95
2018-09-19T22:41:44.610Z,100327.38
2018-09-19T22:44:12.318Z,100325.48
2018-09-19T22:46:40.090Z,100323.05
2018-09-19T22:49:07.893Z,100329.39
2018-09-19T22:51:35.589Z,100327.43
2018-09-19T22:54:03.373Z,100332.09
2018-09-19T22:56:31.098Z,100329.00
2018-09-19T22:58:58.824Z,100329.86
2018-09-19T23:01:26.731Z,100325.72
2018-09-19T23:03:54.412Z,100326.91
2018-09-19T23:06:22.105Z,100327.44
2018-09-19T23:08:49.805Z,100324.75
2018-09-19T23:11:17.592Z,100321.33
2018-09-19T23:13:45.271Z,100322.98
2018-09-19T23:16:13.336Z,100327.55
2018-09-19T23:18:41.099Z,100325.89
2018-09-19T23:21:08.819Z,100333.39
2018-09-19T23:23:39.799Z,100336.48
2018-09-19T23:26:07.523Z,100335.98
2018-09-19T23:28:35.223Z,100332.51
2018-09-19T23:31:02.931Z,100336.34
2018-09-19T23:33:30.628Z,100341.45
2018-09-19T23:35:58.355Z,100337.00
2018-09-19T23:38:26.139Z,100340.18
2018-09-19T23:40:53.849Z,100336.42
2018-09-19T23:43:21.603Z,100335.55
2018-09-19T23:45:49.567Z,100335.69
2018-09-19T23:48:17.323Z,100330.50
2018-09-19T23:50:45.027Z,100331.77
2018-09-19T23:53:12.762Z,100337.32
2018-09-19T23:55:40.451Z,100328.44
2018-09-19T23:58:08.476Z,100333.91
